Kerrick, TX (79051)

6:22 PM CDT on July 24, 2016 (GMT -0500)
McDaniel Farm | | Change Station

Elev 3957 ft 36.46 °N, 102.32 °W | Updated 6 seconds ago

Clear
Clear
95.2 °F
Feels Like 91 °F
N
8.3
Wind Variable Wind from NE
Gusts 9.8 mph

Today
High -- | Low -- °F
--% Chance of Precip.
Yesterday
High -- | Low -- °F
Precip. -- in
Pressure 29.81 in
Visibility 10.0 miles
Clouds Clear
Heat Index 91 °F
Dew Point 35 °F
Humidity 12%
Rainfall 0.00 in
Snow Depth Not available.
6:49 AM 9:01 PM
Waning Gibbous, 72% visible
METAR KDHT 242253Z AUTO 14004KT 10SM CLR 37/09 A3002 RMK AO2 SLP094 T03670089
Pressure 29.81 in
Visibility 10.0 miles
Clouds Clear
Heat Index 91 °F
Dew Point 35 °F
Humidity 12%
Rainfall 0.00 in
Snow Depth Not available.
6:49 AM 9:01 PM
Waning Gibbous, 72% visible
METAR KDHT 242253Z AUTO 14004KT 10SM CLR 37/09 A3002 RMK AO2 SLP094 T03670089

10-Day Weather Forecast

Almanac

Astronomy

Jul. 24, 2016 Rise Set
Actual Time
Civil Twilight
Nautical Twilight
Astronomical Twilight
Moon
Length of Visible Light
Length of Day
Tomorrow will be .
, % of the Moon is Illuminated

Today's Extremes

State Highs State Lows

Community

WunderPhotos

Upload Photos

1,927,205 photos uploaded!

WunderBlog® & News

Nearby

Air Quality

  Air Quality AQ Index Pollutant
Not available.

Snow Depth

Station Depth Elevation

Earthquake Activity

City Distance Mag. Time & Date
Minimum magnitude displayed is 2.5.

Coastal Water Temperatures

Place Temperature

Stations

Nearby Weather Stations

Station Location Temp. Windchill Dew Point Humidity Wind Precip. Elev Updated Type
                   

Watches & Warnings

There are currently no watches in effect.